createdAt,value
2022-10-29T00:02:22.966Z,12.55
2022-10-29T00:04:50.372Z,10.90
2022-10-29T00:07:17.696Z,12.57
2022-10-29T00:09:44.998Z,11.25
2022-10-29T00:12:12.303Z,12.10
2022-10-29T00:14:39.616Z,11.75
2022-10-29T00:17:06.937Z,11.57
2022-10-29T00:19:34.257Z,13.35
2022-10-29T00:22:01.580Z,7.35
2022-10-29T00:24:28.911Z,10.65
2022-10-29T00:26:56.254Z,11.02
2022-10-29T00:29:23.610Z,7.72
2022-10-29T00:31:51.260Z,11.75
2022-10-29T00:34:19.822Z,17.42
2022-10-29T00:36:47.124Z,12.43
2022-10-29T00:39:17.483Z,12.88
2022-10-29T00:41:44.885Z,12.48
2022-10-29T00:44:15.299Z,12.95
2022-10-29T00:46:44.321Z,10.75
2022-10-29T00:49:11.646Z,9.25
2022-10-29T00:51:39.027Z,13.82
2022-10-29T00:54:10.429Z,6.70
2022-10-29T00:56:43.272Z,10.23
2022-10-29T00:59:10.605Z,13.60
2022-10-29T01:01:37.997Z,12.10
2022-10-29T01:04:05.574Z,13.07
2022-10-29T01:06:32.939Z,12.30
2022-10-29T01:09:00.282Z,16.05
2022-10-29T01:11:56.098Z,15.13
2022-10-29T01:14:32.593Z,12.80
2022-10-29T01:17:17.743Z,13.73
2022-10-29T01:20:13.923Z,16.52
2022-10-29T01:22:55.601Z,12.80
2022-10-29T01:25:47.599Z,13.90
2022-10-29T01:28:51.494Z,15.70
2022-10-29T01:31:57.910Z,19.05
2022-10-29T01:34:40.401Z,15.57
2022-10-29T01:37:34.376Z,12.75
2022-10-29T01:40:18.232Z,15.43
2022-10-29T01:42:48.750Z,13.40
2022-10-29T01:45:24.535Z,16.40
2022-10-29T01:48:10.541Z,16.25
2022-10-29T01:50:38.759Z,14.95
2022-10-29T01:53:06.074Z,11.70
2022-10-29T01:55:36.957Z,11.13
2022-10-29T01:58:05.283Z,13.30
2022-10-29T02:00:49.272Z,12.73
2022-10-29T02:03:16.709Z,9.25
2022-10-29T02:05:49.864Z,11.82
2022-10-29T02:08:42.717Z,6.60
2022-10-29T02:11:21.734Z,17.83
2022-10-29T02:14:00.299Z,13.20
2022-10-29T02:16:27.612Z,14.13
2022-10-29T02:18:54.946Z,14.15
2022-10-29T02:21:22.350Z,11.98
2022-10-29T02:23:49.868Z,11.20
2022-10-29T02:26:17.219Z,11.30
2022-10-29T02:28:44.502Z,10.85
2022-10-29T02:31:11.922Z,17.17
2022-10-29T02:33:39.219Z,13.40
2022-10-29T02:36:07.030Z,9.65
2022-10-29T02:38:34.434Z,13.50
2022-10-29T02:41:01.740Z,13.07
2022-10-29T02:43:29.109Z,13.65
2022-10-29T02:46:19.461Z,12.50
2022-10-29T02:48:47.016Z,8.80
2022-10-29T02:51:14.435Z,10.15
2022-10-29T02:53:41.831Z,15.38
2022-10-29T02:56:09.306Z,10.73
2022-10-29T02:58:36.819Z,12.65
2022-10-29T03:01:04.617Z,12.30
2022-10-29T03:03:32.007Z,20.77
2022-10-29T03:05:59.373Z,12.93
2022-10-29T03:08:26.706Z,12.50
2022-10-29T03:10:55.328Z,10.45
2022-10-29T03:13:22.761Z,14.93
2022-10-29T03:15:50.143Z,10.48
2022-10-29T03:18:17.482Z,9.93
2022-10-29T03:20:45.512Z,11.30
2022-10-29T03:23:13.056Z,13.75
2022-10-29T03:25:40.423Z,13.85
2022-10-29T03:28:07.832Z,17.00
2022-10-29T03:30:35.193Z,13.27
2022-10-29T03:33:02.498Z,20.90
2022-10-29T03:35:29.876Z,13.15
2022-10-29T03:37:57.236Z,10.25
2022-10-29T03:40:24.589Z,13.48
2022-10-29T03:42:51.880Z,12.20
2022-10-29T03:45:19.200Z,10.15
2022-10-29T03:47:46.501Z,15.07
2022-10-29T03:50:13.817Z,14.60
2022-10-29T03:52:41.125Z,11.35
2022-10-29T03:55:08.817Z,13.23
2022-10-29T03:57:36.170Z,13.32
2022-10-29T04:00:05.007Z,15.88
2022-10-29T04:02:40.328Z,13.43
2022-10-29T04:05:08.165Z,10.73
2022-10-29T04:07:35.474Z,11.25
2022-10-29T04:10:02.802Z,12.13
2022-10-29T04:12:30.143Z,9.20
2022-10-29T04:14:57.885Z,10.73
2022-10-29T04:17:25.196Z,17.00
2022-10-29T04:19:52.525Z,22.80
2022-10-29T04:30:42.896Z,13.70
2022-10-29T04:33:10.217Z,14.90
2022-10-29T04:35:37.515Z,12.93
2022-10-29T04:38:09.482Z,14.93
2022-10-29T04:40:36.819Z,12.18
2022-10-29T04:43:04.109Z,17.50
2022-10-29T04:45:31.525Z,15.70
2022-10-29T04:48:00.893Z,15.32
2022-10-29T04:50:28.935Z,16.40
2022-10-29T04:53:02.127Z,9.57
2022-10-29T04:55:29.732Z,13.45
2022-10-29T04:57:57.737Z,14.45
2022-10-29T05:00:25.474Z,10.43
2022-10-29T05:02:53.723Z,15.40
2022-10-29T05:05:21.485Z,14.00
2022-10-29T05:07:48.893Z,13.25
2022-10-29T05:10:16.335Z,15.15
2022-10-29T05:12:43.649Z,12.50
2022-10-29T05:15:11.238Z,13.60
2022-10-29T05:17:41.161Z,13.38
2022-10-29T05:20:08.996Z,13.48
2022-10-29T05:22:36.283Z,16.50
2022-10-29T05:25:03.757Z,11.02
2022-10-29T05:27:31.186Z,13.18
2022-10-29T05:29:58.454Z,13.60
2022-10-29T05:32:28.197Z,13.93
2022-10-29T05:34:55.585Z,10.15
2022-10-29T05:37:25.530Z,14.40
2022-10-29T05:39:52.850Z,15.05
2022-10-29T05:42:20.190Z,14.40
2022-10-29T05:44:47.505Z,22.75
2022-10-29T05:47:14.790Z,14.48
2022-10-29T05:49:42.081Z,12.00
2022-10-29T05:52:09.385Z,9.80
2022-10-29T05:54:36.725Z,14.05
2022-10-29T05:57:04.069Z,12.45
2022-10-29T05:59:33.724Z,12.15
2022-10-29T06:02:01.390Z,19.65
2022-10-29T06:04:28.841Z,16.98
2022-10-29T06:06:56.204Z,13.13
2022-10-29T06:09:23.622Z,20.85
2022-10-29T06:11:50.928Z,12.48
2022-10-29T06:14:18.270Z,17.20
2022-10-29T06:16:45.572Z,14.18
2022-10-29T06:19:12.944Z,15.93
2022-10-29T06:21:40.266Z,19.60
2022-10-29T06:24:11.621Z,13.93
2022-10-29T06:26:40.961Z,13.90
2022-10-29T06:29:08.268Z,15.45
2022-10-29T06:31:35.566Z,15.10
2022-10-29T06:34:02.968Z,17.00
2022-10-29T06:36:30.267Z,17.63
2022-10-29T06:38:57.597Z,20.83
2022-10-29T06:41:27.174Z,18.00
2022-10-29T06:43:54.537Z,18.27
2022-10-29T06:46:21.857Z,14.98
2022-10-29T06:48:49.198Z,9.50
2022-10-29T06:51:16.652Z,16.23
2022-10-29T06:53:44.014Z,20.92
2022-10-29T06:56:11.683Z,22.02
2022-10-29T06:58:39.063Z,17.23
2022-10-29T07:01:06.535Z,18.60
2022-10-29T07:03:33.832Z,26.30
2022-10-29T07:06:01.174Z,13.70
2022-10-29T07:08:29.008Z,21.27
2022-10-29T07:10:56.470Z,15.98
2022-10-29T07:13:23.777Z,17.45
2022-10-29T07:15:51.158Z,24.05
2022-10-29T07:18:18.525Z,10.85
2022-10-29T07:20:45.836Z,19.35
2022-10-29T07:23:13.479Z,16.10
2022-10-29T07:25:40.936Z,14.90
2022-10-29T07:28:20.722Z,19.80
2022-10-29T07:30:48.537Z,13.10
2022-10-29T07:33:16.565Z,14.25
2022-10-29T07:35:44.649Z,15.32
2022-10-29T07:38:15.408Z,12.13
2022-10-29T07:40:49.465Z,11.43
2022-10-29T07:43:17.290Z,11.82
2022-10-29T07:45:49.969Z,13.38
2022-10-29T07:48:17.981Z,14.35
2022-10-29T07:50:45.277Z,14.02
2022-10-29T07:53:12.665Z,13.80
2022-10-29T07:55:39.983Z,10.52
2022-10-29T07:58:09.430Z,13.95
2022-10-29T08:00:38.365Z,9.13
2022-10-29T08:03:05.891Z,9.85
2022-10-29T08:05:33.266Z,14.98
2022-10-29T08:08:00.893Z,16.65
2022-10-29T08:10:28.633Z,15.75
2022-10-29T08:13:00.916Z,12.40
2022-10-29T08:15:30.131Z,15.70
2022-10-29T08:17:57.683Z,15.38
2022-10-29T08:20:26.468Z,21.92
2022-10-29T08:22:54.071Z,13.90
2022-10-29T08:25:21.712Z,12.05
2022-10-29T08:28:02.991Z,10.95
2022-10-29T08:30:30.568Z,16.73
2022-10-29T08:32:58.325Z,13.63
2022-10-29T08:35:26.063Z,20.02
2022-10-29T08:37:53.421Z,13.25
2022-10-29T08:40:29.828Z,13.23
2022-10-29T08:43:22.142Z,14.50
2022-10-29T08:45:54.750Z,14.43
2022-10-29T08:48:34.277Z,22.50
2022-10-29T08:51:26.022Z,17.52
2022-10-29T08:54:24.688Z,15.00
2022-10-29T08:56:47.758Z,14.05
2022-10-29T08:59:22.332Z,21.08
2022-10-29T09:01:49.830Z,18.42
2022-10-29T09:04:35.988Z,14.88
2022-10-29T09:07:08.306Z,16.17
2022-10-29T09:09:46.468Z,13.82
2022-10-29T09:12:37.950Z,12.68
2022-10-29T09:15:17.648Z,22.15
2022-10-29T09:17:57.700Z,10.57
2022-10-29T09:20:46.133Z,11.27
2022-10-29T09:23:41.149Z,17.67
2022-10-29T09:26:19.247Z,16.92
2022-10-29T09:29:04.619Z,16.30
2022-10-29T09:31:40.949Z,14.85
2022-10-29T09:34:30.928Z,11.50
2022-10-29T09:36:59.038Z,14.60
2022-10-29T09:39:33.803Z,19.92
2022-10-29T09:42:13.416Z,18.38
2022-10-29T09:44:46.929Z,17.60
2022-10-29T09:47:33.113Z,18.47
2022-10-29T09:50:09.853Z,18.00
2022-10-29T09:52:39.412Z,23.63
2022-10-29T09:55:07.517Z,14.05
2022-10-29T09:57:35.213Z,17.98
2022-10-29T10:00:07.635Z,24.15
2022-10-29T10:02:55.487Z,20.48
2022-10-29T10:05:34.558Z,15.00
2022-10-29T10:08:14.547Z,14.07
2022-10-29T10:10:59.673Z,17.63
2022-10-29T10:13:31.989Z,26.85
2022-10-29T10:16:00.468Z,16.88
2022-10-29T10:18:48.027Z,16.77
2022-10-29T10:21:33.530Z,14.13
2022-10-29T10:24:01.095Z,27.58
2022-10-29T10:26:28.646Z,20.55
2022-10-29T10:37:09.068Z,15.15
2022-10-29T10:39:47.195Z,15.70
2022-10-29T10:42:21.889Z,11.40
2022-10-29T10:44:52.278Z,18.38
2022-10-29T10:47:20.503Z,16.13
2022-10-29T10:49:47.902Z,21.42
2022-10-29T10:52:22.297Z,23.88
2022-10-29T10:57:29.953Z,13.07
2022-10-29T11:00:03.542Z,6.82
2022-10-29T11:02:39.611Z,19.85
2022-10-29T11:05:16.448Z,12.80
2022-10-29T11:07:52.971Z,21.95
2022-10-29T11:10:20.854Z,18.27
2022-10-29T11:12:54.392Z,19.08
2022-10-29T11:15:55.839Z,10.63
2022-10-29T11:18:30.505Z,17.90
2022-10-29T11:21:18.134Z,19.35
2022-10-29T11:23:54.032Z,29.70
2022-10-29T11:27:00.505Z,21.73
2022-10-29T11:29:49.162Z,18.30
2022-10-29T11:32:48.106Z,18.95
2022-10-29T11:35:42.382Z,20.58
2022-10-29T11:38:44.029Z,23.92
2022-10-29T11:41:24.549Z,15.50
2022-10-29T11:43:51.963Z,20.77
2022-10-29T11:46:37.961Z,18.83
2022-10-29T11:49:47.078Z,15.93
2022-10-29T11:52:15.382Z,22.60
2022-10-29T11:54:50.117Z,28.45
2022-10-29T11:57:26.773Z,18.60
2022-10-29T12:00:13.838Z,27.38
2022-10-29T12:03:09.225Z,13.70
2022-10-29T12:06:03.609Z,19.38
2022-10-29T12:08:55.051Z,22.77
2022-10-29T12:11:43.194Z,26.38
2022-10-29T12:14:51.636Z,28.13
2022-10-29T12:17:27.407Z,23.85
2022-10-29T12:20:16.459Z,30.00
2022-10-29T12:23:02.550Z,21.55
2022-10-29T12:25:46.111Z,19.02
2022-10-29T12:28:27.279Z,24.33
2022-10-29T12:30:57.688Z,19.55
2022-10-29T12:33:30.807Z,20.25
2022-10-29T12:35:59.935Z,30.90
2022-10-29T12:38:36.685Z,27.08
2022-10-29T12:41:09.497Z,22.55
2022-10-29T12:43:37.958Z,19.08
2022-10-29T12:46:29.884Z,16.08
2022-10-29T12:49:42.149Z,17.25
2022-10-29T12:52:28.963Z,20.33
2022-10-29T12:54:56.308Z,22.88
2022-10-29T12:57:34.860Z,20.23
2022-10-29T13:00:32.410Z,17.83
2022-10-29T13:03:00.433Z,18.40
2022-10-29T13:05:38.760Z,21.60
2022-10-29T13:08:06.028Z,19.63
2022-10-29T13:10:33.339Z,23.98
2022-10-29T13:13:15.755Z,26.17
2022-10-29T13:16:21.831Z,18.98
2022-10-29T13:18:56.709Z,26.40
2022-10-29T13:22:12.344Z,19.08
2022-10-29T13:24:39.673Z,18.08
2022-10-29T13:27:16.174Z,23.15
2022-10-29T13:29:48.884Z,28.15
2022-10-29T13:32:37.759Z,26.48
2022-10-29T13:35:17.009Z,18.58
2022-10-29T13:37:47.415Z,21.52
2022-10-29T13:40:32.830Z,22.40
2022-10-29T13:43:18.109Z,20.30
2022-10-29T13:46:17.405Z,21.70
2022-10-29T13:48:44.814Z,19.48
2022-10-29T13:51:16.138Z,19.77
2022-10-29T13:53:46.493Z,20.63
2022-10-29T13:56:17.323Z,23.33
2022-10-29T13:58:44.733Z,17.83
2022-10-29T14:01:14.669Z,21.00
2022-10-29T14:04:11.364Z,22.55
2022-10-29T14:06:38.846Z,23.35
2022-10-29T14:09:24.583Z,19.73
2022-10-29T14:12:02.991Z,28.67
2022-10-29T14:14:43.174Z,25.33
2022-10-29T14:17:15.196Z,21.42
2022-10-29T14:19:52.113Z,26.02
2022-10-29T14:22:19.460Z,18.23
2022-10-29T14:24:46.877Z,21.33
2022-10-29T14:27:15.185Z,23.30
2022-10-29T14:29:43.073Z,23.88
2022-10-29T14:32:15.563Z,18.60
2022-10-29T14:34:45.262Z,20.13
2022-10-29T14:37:35.593Z,17.83
2022-10-29T14:40:13.905Z,22.58
2022-10-29T14:42:43.500Z,24.60
2022-10-29T14:45:19.675Z,22.58
2022-10-29T14:48:06.077Z,22.55
2022-10-29T14:50:33.445Z,21.23
2022-10-29T14:53:08.070Z,22.58
2022-10-29T14:55:40.115Z,25.13
2022-10-29T14:58:11.097Z,27.25
2022-10-29T15:00:39.003Z,30.38
2022-10-29T15:03:07.044Z,31.17
2022-10-29T15:05:36.735Z,18.15
2022-10-29T15:08:05.848Z,18.30
2022-10-29T15:10:33.253Z,25.27
2022-10-29T15:13:00.713Z,19.90
2022-10-29T15:15:29.013Z,21.40
2022-10-29T15:18:07.530Z,20.75
2022-10-29T15:20:34.860Z,25.48
2022-10-29T15:23:02.207Z,24.80
2022-10-29T15:25:35.649Z,27.77
2022-10-29T15:28:03.319Z,26.77
2022-10-29T15:30:35.310Z,26.77
2022-10-29T15:33:08.164Z,25.75
2022-10-29T15:35:36.197Z,21.08
2022-10-29T15:38:03.596Z,26.33
2022-10-29T15:40:31.093Z,17.95
2022-10-29T15:43:01.487Z,28.85
2022-10-29T15:45:29.883Z,24.90
2022-10-29T15:51:57.599Z,21.35
2022-10-29T15:54:24.954Z,25.08
2022-10-29T15:56:52.388Z,27.92
2022-10-29T15:59:22.694Z,21.75
2022-10-29T16:01:50.195Z,17.83
2022-10-29T16:04:17.607Z,26.92
2022-10-29T16:06:45.038Z,30.17
2022-10-29T16:09:19.744Z,24.15
2022-10-29T16:11:47.231Z,26.50
2022-10-29T16:14:14.608Z,17.23
2022-10-29T16:16:41.941Z,19.20
2022-10-29T16:19:09.317Z,18.63
2022-10-29T16:21:36.653Z,29.23
2022-10-29T16:24:04.308Z,21.60
2022-10-29T16:26:31.868Z,23.20
2022-10-29T16:28:59.225Z,248.70
2022-10-29T16:31:27.642Z,253.77
2022-10-29T16:33:58.452Z,167.15
2022-10-29T16:36:25.948Z,99.78
2022-10-29T16:38:53.352Z,42.83
2022-10-29T16:41:20.726Z,27.65
2022-10-29T16:43:48.360Z,24.95
2022-10-29T16:46:15.906Z,29.05
2022-10-29T16:48:43.520Z,19.67
2022-10-29T16:51:10.879Z,18.02
2022-10-29T16:53:38.185Z,25.40
2022-10-29T16:56:05.928Z,21.55
2022-10-29T16:58:33.259Z,20.48
2022-10-29T17:01:05.117Z,20.10
2022-10-29T17:03:33.227Z,22.20
2022-10-29T17:06:11.012Z,26.63
2022-10-29T17:08:44.323Z,20.67
2022-10-29T17:11:11.910Z,143.35
2022-10-29T17:13:39.568Z,249.55
2022-10-29T17:16:11.013Z,106.20
2022-10-29T17:18:38.470Z,53.72
2022-10-29T17:21:06.029Z,32.40
2022-10-29T17:23:33.412Z,28.20
2022-10-29T17:26:00.993Z,21.42
2022-10-29T17:28:28.637Z,20.65
2022-10-29T17:30:55.949Z,23.63
2022-10-29T17:33:23.339Z,21.60
2022-10-29T17:35:50.687Z,25.73
2022-10-29T17:38:18.077Z,26.40
2022-10-29T17:40:46.180Z,24.30
2022-10-29T17:43:13.562Z,28.05
2022-10-29T17:45:42.141Z,35.58
2022-10-29T17:48:09.425Z,31.17
2022-10-29T17:50:36.820Z,28.45
2022-10-29T17:53:04.281Z,22.58
2022-10-29T17:55:31.810Z,19.50
2022-10-29T17:57:59.442Z,17.48
2022-10-29T18:00:27.084Z,17.92
2022-10-29T18:02:54.586Z,17.05
2022-10-29T18:05:22.116Z,19.30
2022-10-29T18:07:49.433Z,21.95
2022-10-29T18:10:17.270Z,22.17
2022-10-29T18:12:44.615Z,19.17
2022-10-29T18:15:11.952Z,24.10
2022-10-29T18:17:40.697Z,24.42
2022-10-29T18:20:08.818Z,24.40
2022-10-29T18:22:36.366Z,29.50
2022-10-29T18:25:04.082Z,17.65
2022-10-29T18:27:31.472Z,23.00
2022-10-29T18:29:58.809Z,15.60
2022-10-29T18:32:26.128Z,16.52
2022-10-29T18:34:54.006Z,17.63
2022-10-29T18:37:21.783Z,18.33
2022-10-29T18:39:49.171Z,24.38
2022-10-29T18:42:16.564Z,44.55
2022-10-29T18:44:43.910Z,44.95
2022-10-29T18:47:11.362Z,32.20
2022-10-29T18:49:42.154Z,32.17
2022-10-29T18:55:28.400Z,23.92
2022-10-29T18:57:55.726Z,19.23
2022-10-29T19:00:23.087Z,20.08
2022-10-29T19:02:50.672Z,33.08
2022-10-29T19:05:18.036Z,21.20
2022-10-29T19:07:45.388Z,23.05
2022-10-29T19:10:12.721Z,30.48
2022-10-29T19:12:40.035Z,28.40
2022-10-29T19:15:07.952Z,21.60
2022-10-29T19:17:35.264Z,36.42
2022-10-29T19:20:02.716Z,26.98
2022-10-29T19:22:31.040Z,24.63
2022-10-29T19:24:59.100Z,33.75
2022-10-29T19:27:26.483Z,43.10
2022-10-29T19:29:53.854Z,33.85
2022-10-29T19:32:21.204Z,38.67
2022-10-29T19:34:48.608Z,25.25
2022-10-29T19:37:15.969Z,24.92
2022-10-29T19:39:43.293Z,43.30
2022-10-29T19:42:10.677Z,41.63
2022-10-29T19:44:38.088Z,53.10
2022-10-29T19:47:05.427Z,54.50
2022-10-29T19:49:32.857Z,40.03
2022-10-29T19:52:00.266Z,25.63
2022-10-29T19:54:27.576Z,36.22
2022-10-29T19:56:54.961Z,26.80
2022-10-29T19:59:22.347Z,30.20
2022-10-29T20:01:49.874Z,29.20
2022-10-29T20:04:17.358Z,30.85
2022-10-29T20:06:44.753Z,36.22
2022-10-29T20:09:12.084Z,31.67
2022-10-29T20:11:39.460Z,34.33
2022-10-29T20:14:06.777Z,30.58
2022-10-29T20:16:34.205Z,35.45
2022-10-29T20:19:01.774Z,30.15
2022-10-29T20:21:29.072Z,35.45
2022-10-29T20:23:56.769Z,38.42
2022-10-29T20:26:24.190Z,31.63
2022-10-29T20:29:01.839Z,32.30
2022-10-29T20:31:31.192Z,35.00
2022-10-29T20:34:00.145Z,29.13
2022-10-29T20:36:28.943Z,63.28
2022-10-29T20:38:56.627Z,59.17
2022-10-29T20:41:24.441Z,34.53
2022-10-29T20:43:57.223Z,27.75
2022-10-29T20:46:24.814Z,24.58
2022-10-29T20:48:52.166Z,39.10
2022-10-29T20:51:23.159Z,46.90
2022-10-29T20:53:53.799Z,63.13
2022-10-29T20:56:22.276Z,36.20
2022-10-29T20:58:50.528Z,32.22
2022-10-29T21:01:22.919Z,27.00
2022-10-29T21:03:50.776Z,26.60
2022-10-29T21:06:18.783Z,39.85
2022-10-29T21:08:46.921Z,29.75
2022-10-29T21:11:15.130Z,26.90
2022-10-29T21:13:42.573Z,23.48
2022-10-29T21:16:21.161Z,22.20
2022-10-29T21:18:50.055Z,28.60
2022-10-29T21:21:17.587Z,25.42
2022-10-29T21:23:45.017Z,22.13
2022-10-29T21:26:14.415Z,25.63
2022-10-29T21:28:41.958Z,49.70
2022-10-29T21:31:09.431Z,110.57
2022-10-29T21:33:36.871Z,43.75
2022-10-29T21:36:04.327Z,32.33
2022-10-29T21:38:33.358Z,26.90
2022-10-29T21:41:02.155Z,33.40
2022-10-29T21:43:29.756Z,28.23
2022-10-29T21:45:57.122Z,33.88
2022-10-29T21:48:28.188Z,34.92
2022-10-29T21:51:10.019Z,41.88
2022-10-29T21:53:37.354Z,30.30
2022-10-29T21:56:06.351Z,32.10
2022-10-29T21:58:34.056Z,24.73
2022-10-29T22:01:09.493Z,26.10
2022-10-29T22:03:38.055Z,24.75
2022-10-29T22:06:07.096Z,21.35
2022-10-29T22:08:34.830Z,24.77
2022-10-29T22:11:02.489Z,27.20
2022-10-29T22:13:30.078Z,27.38
2022-10-29T22:15:57.687Z,53.30
2022-10-29T22:18:27.430Z,28.20
2022-10-29T22:21:14.705Z,35.03
2022-10-29T22:23:46.602Z,23.77
2022-10-29T22:26:14.986Z,23.33
2022-10-29T22:28:42.525Z,31.02
2022-10-29T22:31:10.138Z,33.67
2022-10-29T22:33:37.541Z,31.17
2022-10-29T22:36:10.207Z,23.17
2022-10-29T22:38:37.761Z,24.63
2022-10-29T22:41:11.530Z,23.75
2022-10-29T22:43:38.887Z,29.50
2022-10-29T22:46:06.749Z,47.03
2022-10-29T22:48:34.281Z,65.40
2022-10-29T22:51:04.679Z,31.90
2022-10-29T22:53:32.520Z,50.80
2022-10-29T22:56:00.627Z,32.95
2022-10-29T22:58:28.159Z,37.25
2022-10-29T23:01:16.591Z,24.23
2022-10-29T23:03:44.126Z,26.77
2022-10-29T23:06:12.880Z,26.90
2022-10-29T23:08:40.398Z,29.60
2022-10-29T23:11:10.619Z,22.15
2022-10-29T23:13:38.061Z,28.10
2022-10-29T23:16:05.936Z,23.63
2022-10-29T23:18:39.396Z,25.92
2022-10-29T23:21:07.402Z,21.77
2022-10-29T23:23:35.342Z,23.13
2022-10-29T23:26:03.892Z,25.48
2022-10-29T23:28:38.322Z,41.97
2022-10-29T23:33:33.874Z,20.65
2022-10-29T23:36:08.622Z,32.78
2022-10-29T23:38:37.371Z,23.08
2022-10-29T23:41:04.914Z,28.80
2022-10-29T23:43:32.241Z,25.55
2022-10-29T23:45:59.598Z,22.50
2022-10-29T23:48:30.088Z,26.65
2022-10-29T23:50:57.860Z,24.08
2022-10-29T23:53:25.261Z,28.95
2022-10-29T23:55:52.657Z,31.27
2022-10-29T23:58:20.070Z,19.42
